createdAt,value
2019-05-06T00:06:28.897Z,5.29
2019-05-06T00:16:29.763Z,5.66
2019-05-06T00:26:30.652Z,5.37
2019-05-06T00:36:31.343Z,5.48
2019-05-06T00:46:34.249Z,5.59
2019-05-06T00:56:34.643Z,4.99
2019-05-06T01:06:35.321Z,5.14
2019-05-06T01:16:36.337Z,5.41
2019-05-06T01:26:38.009Z,5.47
2019-05-06T01:36:38.654Z,5.31
2019-05-06T01:46:39.373Z,5.09
2019-05-06T01:56:40.029Z,4.91
2019-05-06T02:06:40.893Z,4.32
2019-05-06T02:16:43.647Z,4.66
2019-05-06T02:26:44.535Z,4.00
2019-05-06T02:36:45.833Z,4.92
2019-05-06T02:46:46.870Z,4.90
2019-05-06T02:56:47.532Z,4.79
2019-05-06T03:06:48.465Z,4.11
2019-05-06T03:16:49.318Z,4.41
2019-05-06T03:26:56.122Z,4.25
2019-05-06T03:36:56.287Z,4.09
2019-05-06T03:46:55.797Z,3.70
2019-05-06T03:56:56.853Z,4.01
2019-05-06T04:06:58.916Z,2.02
2019-05-06T04:17:00.085Z,2.92
2019-05-06T04:27:24.454Z,3.92
2019-05-06T04:37:25.108Z,4.11
2019-05-06T04:47:25.766Z,5.24
2019-05-06T04:57:26.782Z,7.03
2019-05-06T05:07:27.679Z,8.17
2019-05-06T05:17:28.301Z,7.83
2019-05-06T05:27:29.295Z,8.26
2019-05-06T05:37:30.268Z,6.83
2019-05-06T05:47:32.987Z,6.94
2019-05-06T05:57:33.873Z,6.43
2019-05-06T06:07:35.587Z,6.88
2019-05-06T06:17:36.241Z,6.73
2019-05-06T06:27:37.222Z,7.52
2019-05-06T06:37:39.346Z,7.63
2019-05-06T06:47:40.015Z,6.94
2019-05-06T06:57:42.414Z,7.36
2019-05-06T07:07:47.339Z,8.36
2019-05-06T07:17:46.092Z,9.63
2019-05-06T07:27:46.995Z,6.79
2019-05-06T07:37:47.744Z,7.82
2019-05-06T07:47:48.410Z,9.55
2019-05-06T07:57:50.625Z,9.12
2019-05-06T08:07:55.062Z,8.56
2019-05-06T08:17:54.807Z,7.34
2019-05-06T08:27:55.707Z,7.63
2019-05-06T08:37:56.377Z,7.69
2019-05-06T08:47:57.278Z,8.38
2019-05-06T08:57:58.246Z,8.58
2019-05-06T09:07:58.939Z,8.93
2019-05-06T09:17:59.823Z,8.78
2019-05-06T09:28:02.517Z,8.85
2019-05-06T09:38:03.451Z,9.50
2019-05-06T09:48:04.514Z,10.38
2019-05-06T09:58:05.197Z,11.10
2019-05-06T10:08:06.149Z,10.10
2019-05-06T10:18:06.959Z,8.64
2019-05-06T10:28:07.942Z,9.47
2019-05-06T10:38:12.609Z,9.62
2019-05-06T10:48:13.575Z,10.43
2019-05-06T10:58:14.220Z,10.32
2019-05-06T11:08:15.180Z,10.52
2019-05-06T11:18:15.814Z,10.77
2019-05-06T11:28:16.721Z,10.16
2019-05-06T11:38:18.101Z,10.65
2019-05-06T11:48:19.032Z,9.45
2019-05-06T11:58:22.274Z,9.88
2019-05-06T12:08:22.657Z,9.89
2019-05-06T12:18:23.382Z,11.00
2019-05-06T12:28:24.290Z,10.18
2019-05-06T12:38:30.301Z,10.85
2019-05-06T12:48:27.633Z,10.22
2019-05-06T12:58:28.606Z,10.90
2019-05-06T13:08:51.719Z,10.24
2019-05-06T13:18:32.825Z,10.97
2019-05-06T13:28:33.764Z,10.65
2019-05-06T13:38:34.742Z,10.61
2019-05-06T13:48:35.489Z,10.20
2019-05-06T13:58:36.386Z,10.20
2019-05-06T14:08:37.286Z,9.91
2019-05-06T14:18:38.014Z,10.75
2019-05-06T14:28:38.963Z,10.56
2019-05-06T14:38:39.694Z,10.01
2019-05-06T14:48:40.410Z,10.38
2019-05-06T14:58:42.824Z,10.32
2019-05-06T15:08:43.618Z,10.21
2019-05-06T15:18:44.529Z,10.28
2019-05-06T15:28:47.053Z,10.54
2019-05-06T15:38:48.059Z,10.01
2019-05-06T15:48:48.951Z,10.12
2019-05-06T15:58:49.905Z,9.88
2019-05-06T16:08:52.632Z,10.54
2019-05-06T16:18:53.765Z,9.88
2019-05-06T16:28:54.762Z,9.61
2019-05-06T16:38:55.706Z,9.85
2019-05-06T16:48:56.635Z,10.08
2019-05-06T16:58:57.574Z,9.39
2019-05-06T17:08:58.600Z,9.69
2019-05-06T17:18:59.578Z,9.52
2019-05-06T17:29:02.574Z,9.65
2019-05-06T17:39:06.220Z,9.38
2019-05-06T17:49:06.932Z,9.72
2019-05-06T17:59:07.935Z,9.19
2019-05-06T18:09:08.929Z,9.13
2019-05-06T18:19:12.464Z,8.72
2019-05-06T18:29:12.786Z,8.96
2019-05-06T18:39:13.406Z,9.43
2019-05-06T18:49:14.124Z,9.78
2019-05-06T18:59:15.117Z,10.13
2019-05-06T19:09:16.136Z,10.12
2019-05-06T19:19:17.626Z,10.15
2019-05-06T19:29:18.286Z,9.82
2019-05-06T19:39:19.194Z,8.60
2019-05-06T19:49:21.678Z,8.51
2019-05-06T19:59:23.037Z,8.83
2019-05-06T20:09:23.757Z,8.40
2019-05-06T20:19:30.807Z,9.13
2019-05-06T20:29:27.451Z,8.81
2019-05-06T20:39:29.447Z,8.74
2019-05-06T20:49:30.122Z,9.29
2019-05-06T20:59:32.212Z,9.48
2019-05-06T21:09:33.208Z,8.73
2019-05-06T21:19:34.124Z,9.28
2019-05-06T21:29:35.022Z,9.34
2019-05-06T21:39:35.995Z,9.64
2019-05-06T21:49:42.522Z,10.15
2019-05-06T21:59:43.409Z,9.48
2019-05-06T22:09:44.489Z,9.00
2019-05-06T22:19:45.129Z,9.88
2019-05-06T22:29:45.952Z,9.02
2019-05-06T22:39:46.634Z,9.45
2019-05-06T22:49:47.314Z,10.28
2019-05-06T22:59:48.230Z,9.31
2019-05-06T23:09:49.145Z,9.04
2019-05-06T23:19:49.766Z,7.70
2019-05-06T23:29:52.647Z,7.89
2019-05-06T23:40:33.016Z,7.46
2019-05-06T23:51:12.734Z,8.67
